Aviation Digital Data Service (ADDS)

Output produced by METARs form (0420 UTC 19 April 2014)
found at http://aviationweather.gov/adds/metars/
 
KLGA 190236Z 1903/1924 20005KT P6SM BKN200 
     FM190600 24005KT P6SM BKN250 
     FM190900 29007KT P6SM SCT250 
     FM191200 32010KT P6SM FEW070 
     FM191400 33014G21KT P6SM SKC